createdAt,value
2017-01-23T00:00:12.145Z,0
2017-01-23T00:01:25.912Z,0
2017-01-23T00:02:39.897Z,0
2017-01-23T00:03:53.453Z,0
2017-01-23T00:05:07.030Z,0
2017-01-23T00:06:20.485Z,0
2017-01-23T00:07:34.445Z,0
2017-01-23T00:08:48.066Z,0
2017-01-23T00:10:01.835Z,0
2017-01-23T00:11:15.503Z,0
2017-01-23T00:12:29.027Z,0
2017-01-23T00:13:43.148Z,0
2017-01-23T00:14:56.719Z,0
2017-01-23T00:16:10.235Z,0
2017-01-23T00:17:23.855Z,0
2017-01-23T00:18:37.516Z,0
2017-01-23T00:19:51.497Z,0
2017-01-23T00:21:05.312Z,0
2017-01-23T00:22:18.788Z,0
2017-01-23T00:23:32.341Z,0
2017-01-23T00:24:45.960Z,0
2017-01-23T00:25:59.963Z,0
2017-01-23T00:27:13.492Z,0
2017-01-23T00:28:27.052Z,0
2017-01-23T00:29:41.025Z,0
2017-01-23T00:30:54.798Z,0
2017-01-23T00:32:08.643Z,0
2017-01-23T00:33:22.286Z,0
2017-01-23T00:34:36.171Z,0
2017-01-23T00:35:50.734Z,0
2017-01-23T00:37:04.369Z,0
2017-01-23T00:38:18.187Z,0
2017-01-23T00:39:31.635Z,0
2017-01-23T00:40:45.606Z,0
2017-01-23T00:41:59.164Z,0
2017-01-23T00:43:12.842Z,0
2017-01-23T00:44:26.824Z,0
2017-01-23T00:45:42.760Z,0
2017-01-23T00:46:56.292Z,0
2017-01-23T00:48:09.770Z,0
2017-01-23T00:49:23.215Z,0
2017-01-23T00:50:37.610Z,0
2017-01-23T00:51:51.123Z,0
2017-01-23T00:53:04.585Z,0
2017-01-23T00:54:18.130Z,0
2017-01-23T00:55:31.581Z,0
2017-01-23T00:56:45.904Z,0
2017-01-23T00:57:59.463Z,0
2017-01-23T00:59:13.454Z,0
2017-01-23T01:00:27.147Z,0
2017-01-23T01:01:45.838Z,0
2017-01-23T01:03:00.580Z,0
2017-01-23T01:04:14.475Z,0
2017-01-23T01:05:28.076Z,0
2017-01-23T01:06:41.554Z,0
2017-01-23T01:07:55.190Z,0
2017-01-23T01:09:09.606Z,0
2017-01-23T01:10:23.195Z,0
2017-01-23T01:11:36.756Z,0
2017-01-23T01:12:50.335Z,0
2017-01-23T01:14:03.957Z,0
2017-01-23T01:15:18.314Z,0
2017-01-23T01:16:31.944Z,0
2017-01-23T01:17:45.528Z,0
2017-01-23T01:18:59.104Z,0
2017-01-23T01:20:13.332Z,0
2017-01-23T01:21:27.341Z,0
2017-01-23T01:22:40.994Z,0
2017-01-23T01:23:54.553Z,0
2017-01-23T01:25:08.090Z,0
2017-01-23T01:26:22.699Z,0
2017-01-23T01:27:38.223Z,0
2017-01-23T01:28:51.834Z,0
2017-01-23T01:30:05.296Z,0
2017-01-23T01:31:18.914Z,0
2017-01-23T01:32:33.470Z,0
2017-01-23T01:33:47.383Z,0
2017-01-23T01:35:01.031Z,0
2017-01-23T01:36:14.767Z,0
2017-01-23T01:37:29.086Z,0
2017-01-23T01:38:42.585Z,0
2017-01-23T01:39:56.388Z,0
2017-01-23T01:41:09.841Z,0
2017-01-23T01:42:23.712Z,0
2017-01-23T01:43:37.344Z,0
2017-01-23T01:44:50.800Z,0
2017-01-23T01:46:04.536Z,0
2017-01-23T01:47:18.352Z,0
2017-01-23T01:48:32.247Z,0
2017-01-23T01:49:46.146Z,0
2017-01-23T01:50:59.577Z,0
2017-01-23T01:52:13.342Z,0
2017-01-23T01:53:37.334Z,0
2017-01-23T01:54:51.200Z,0
2017-01-23T01:56:04.649Z,0
2017-01-23T01:57:18.054Z,0
2017-01-23T01:58:31.975Z,0
2017-01-23T01:59:45.512Z,0
2017-01-23T02:00:59.143Z,0
2017-01-23T02:02:14.763Z,0
2017-01-23T02:06:43.511Z,0
2017-01-23T02:07:57.366Z,0
2017-01-23T02:09:10.804Z,0
2017-01-23T02:10:24.235Z,0
2017-01-23T02:11:37.692Z,0
2017-01-23T02:12:51.529Z,0
2017-01-23T02:14:05.104Z,0
2017-01-23T02:15:18.528Z,0
2017-01-23T02:16:32.044Z,0
2017-01-23T02:17:45.521Z,0
2017-01-23T02:18:59.355Z,0
2017-01-23T02:20:13.291Z,0
2017-01-23T02:21:26.917Z,0
2017-01-23T02:22:40.442Z,0
2017-01-23T02:23:53.981Z,0
2017-01-23T02:25:08.143Z,0
2017-01-23T02:26:21.595Z,0
2017-01-23T02:27:35.525Z,0
2017-01-23T02:28:48.933Z,0
2017-01-23T02:30:02.444Z,0
2017-01-23T02:31:16.351Z,0
2017-01-23T02:32:29.922Z,0
2017-01-23T02:33:43.828Z,0
2017-01-23T02:34:58.151Z,0
2017-01-23T02:36:12.910Z,0
2017-01-23T02:37:26.843Z,0
2017-01-23T02:38:41.980Z,0
2017-01-23T02:39:55.534Z,0
2017-01-23T02:41:09.019Z,0
2017-01-23T02:42:22.499Z,0
2017-01-23T02:43:36.414Z,0
2017-01-23T02:44:50.038Z,0
2017-01-23T02:46:03.579Z,0
2017-01-23T02:47:17.441Z,0
2017-01-23T02:48:30.945Z,0
2017-01-23T02:49:44.865Z,0
2017-01-23T02:50:58.514Z,0
2017-01-23T02:52:12.034Z,0
2017-01-23T02:53:25.529Z,0
2017-01-23T02:54:39.124Z,0
2017-01-23T02:55:52.950Z,0
2017-01-23T02:57:06.436Z,0
2017-01-23T02:58:19.856Z,0
2017-01-23T02:59:33.445Z,0
2017-01-23T03:00:47.012Z,0
2017-01-23T03:02:00.846Z,0
2017-01-23T03:03:14.340Z,0
2017-01-23T03:04:27.762Z,0
2017-01-23T03:05:41.745Z,0
2017-01-23T03:06:55.198Z,0
2017-01-23T03:08:08.946Z,0
2017-01-23T03:09:22.412Z,0
2017-01-23T03:10:35.976Z,0
2017-01-23T03:11:49.887Z,0
2017-01-23T03:13:03.421Z,0
2017-01-23T03:14:18.303Z,0
2017-01-23T03:15:32.003Z,0
2017-01-23T03:16:45.649Z,0
2017-01-23T03:17:59.204Z,0
2017-01-23T03:19:12.696Z,0
2017-01-23T03:20:29.044Z,0
2017-01-23T03:21:42.492Z,0
2017-01-23T03:22:55.980Z,0
2017-01-23T03:24:09.932Z,0
2017-01-23T03:25:24.012Z,0
2017-01-23T03:26:37.816Z,0
2017-01-23T03:27:51.343Z,0
2017-01-23T03:29:04.866Z,0
2017-01-23T03:30:19.315Z,0
2017-01-23T03:31:33.001Z,0
2017-01-23T03:32:46.850Z,0
2017-01-23T03:34:00.373Z,0
2017-01-23T03:35:13.828Z,0
2017-01-23T03:36:27.370Z,0
2017-01-23T03:37:40.976Z,0
2017-01-23T03:38:55.102Z,0
2017-01-23T03:40:08.563Z,0
2017-01-23T03:41:22.087Z,0
2017-01-23T03:42:35.599Z,0
2017-01-23T03:43:49.025Z,0
2017-01-23T03:45:02.770Z,0
2017-01-23T03:46:16.455Z,0
2017-01-23T03:47:30.018Z,0
2017-01-23T03:48:43.485Z,0
2017-01-23T03:50:16.887Z,0
2017-01-23T03:51:30.700Z,0
2017-01-23T03:52:44.256Z,0
2017-01-23T03:53:57.930Z,0
2017-01-23T03:55:11.532Z,0
2017-01-23T03:56:24.977Z,0
2017-01-23T03:57:39.219Z,0
2017-01-23T03:58:52.713Z,0
2017-01-23T04:00:06.208Z,0
2017-01-23T04:01:20.555Z,0
2017-01-23T04:02:33.989Z,0
2017-01-23T04:03:47.823Z,0
2017-01-23T04:05:01.497Z,0
2017-01-23T04:06:15.067Z,0
2017-01-23T04:07:28.619Z,0
2017-01-23T04:08:42.424Z,0
2017-01-23T04:09:56.387Z,0
2017-01-23T04:11:09.933Z,0
2017-01-23T04:12:23.463Z,0
2017-01-23T04:13:37.177Z,0
2017-01-23T04:14:50.739Z,0
2017-01-23T04:16:04.678Z,0
2017-01-23T04:17:18.164Z,0
2017-01-23T04:18:31.733Z,0
2017-01-23T04:19:45.306Z,0
2017-01-23T04:20:58.884Z,0
2017-01-23T04:22:12.625Z,0
2017-01-23T04:23:26.114Z,0
2017-01-23T04:24:39.574Z,0
2017-01-23T04:25:53.538Z,0
2017-01-23T04:27:07.039Z,0
2017-01-23T04:28:20.903Z,0
2017-01-23T04:29:34.433Z,0
2017-01-23T04:30:47.886Z,0
2017-01-23T04:32:01.489Z,0
2017-01-23T04:33:14.948Z,0
2017-01-23T04:34:28.673Z,0
2017-01-23T04:35:42.276Z,0
2017-01-23T04:36:57.907Z,0
2017-01-23T04:38:11.405Z,0
2017-01-23T04:39:24.968Z,0
2017-01-23T04:40:40.898Z,0
2017-01-23T04:41:54.378Z,0
2017-01-23T04:43:07.935Z,0
2017-01-23T04:44:22.299Z,0
2017-01-23T04:45:36.760Z,0
2017-01-23T04:46:50.534Z,0
2017-01-23T04:48:04.197Z,0
2017-01-23T04:49:17.683Z,0
2017-01-23T04:50:31.189Z,0
2017-01-23T04:51:44.657Z,0
2017-01-23T04:52:58.868Z,0
2017-01-23T04:54:12.363Z,0
2017-01-23T04:55:26.259Z,0
2017-01-23T04:56:40.163Z,0
2017-01-23T04:57:53.639Z,0
2017-01-23T04:59:07.877Z,0
2017-01-23T05:00:21.351Z,0
2017-01-23T05:01:34.861Z,0
2017-01-23T05:02:48.347Z,0
2017-01-23T05:04:01.810Z,0
2017-01-23T05:05:15.976Z,0
2017-01-23T05:06:30.679Z,0
2017-01-23T05:07:44.221Z,0
2017-01-23T05:08:57.710Z,0
2017-01-23T05:10:11.196Z,0
2017-01-23T05:11:24.904Z,0
2017-01-23T05:12:38.722Z,0
2017-01-23T05:13:52.242Z,0
2017-01-23T05:15:05.737Z,0
2017-01-23T05:16:19.221Z,0
2017-01-23T05:17:33.905Z,0
2017-01-23T05:18:47.380Z,0
2017-01-23T05:20:01.291Z,0
2017-01-23T05:21:14.809Z,0
2017-01-23T05:22:28.369Z,0
2017-01-23T05:23:42.181Z,0
2017-01-23T05:24:56.483Z,0
2017-01-23T05:26:10.493Z,0
2017-01-23T05:27:24.193Z,0
2017-01-23T05:28:37.788Z,0
2017-01-23T05:29:52.063Z,0
2017-01-23T05:31:05.823Z,0
2017-01-23T05:32:19.367Z,0
2017-01-23T05:33:33.451Z,0
2017-01-23T05:34:47.028Z,0
2017-01-23T05:36:00.798Z,0
2017-01-23T05:37:14.283Z,0
2017-01-23T05:38:27.872Z,0
2017-01-23T05:39:41.399Z,0
2017-01-23T05:40:55.387Z,0
2017-01-23T05:42:09.225Z,0
2017-01-23T05:43:23.264Z,0
2017-01-23T05:44:36.824Z,0
2017-01-23T05:45:50.334Z,0
2017-01-23T05:47:03.904Z,0
2017-01-23T05:48:17.968Z,0
2017-01-23T05:49:31.647Z,0
2017-01-23T05:50:45.354Z,0
2017-01-23T05:51:59.393Z,0
2017-01-23T05:53:15.251Z,0
2017-01-23T05:54:29.741Z,0
2017-01-23T05:55:43.361Z,0
2017-01-23T05:56:56.860Z,0
2017-01-23T05:58:10.674Z,0
2017-01-23T05:59:24.504Z,0
2017-01-23T06:00:39.522Z,0
2017-01-23T06:01:53.003Z,0
2017-01-23T06:03:06.896Z,0
2017-01-23T06:04:20.412Z,0
2017-01-23T06:05:34.103Z,0
2017-01-23T06:06:48.363Z,0
2017-01-23T06:08:01.779Z,0
2017-01-23T06:09:15.274Z,0
2017-01-23T06:10:28.827Z,0
2017-01-23T06:11:42.359Z,0
2017-01-23T06:12:56.061Z,0
2017-01-23T06:14:09.538Z,0
2017-01-23T06:15:22.941Z,0
2017-01-23T06:16:36.548Z,0
2017-01-23T06:17:50.046Z,0
2017-01-23T06:19:03.779Z,0
2017-01-23T06:20:17.215Z,0
2017-01-23T06:21:30.681Z,0
2017-01-23T06:22:44.137Z,0
2017-01-23T06:23:57.555Z,0
2017-01-23T06:25:11.023Z,0
2017-01-23T06:26:24.462Z,0
2017-01-23T06:27:37.987Z,0
2017-01-23T06:28:51.408Z,0
2017-01-23T06:30:04.920Z,0
2017-01-23T06:31:18.700Z,0
2017-01-23T06:32:32.288Z,0
2017-01-23T06:33:45.909Z,0
2017-01-23T06:34:59.358Z,0
2017-01-23T06:36:12.904Z,0
2017-01-23T06:37:26.675Z,0
2017-01-23T06:38:40.145Z,0
2017-01-23T06:39:53.595Z,0
2017-01-23T06:41:07.025Z,0
2017-01-23T06:42:20.480Z,0
2017-01-23T06:43:39.287Z,0
2017-01-23T06:44:53.171Z,0
2017-01-23T06:46:07.069Z,0
2017-01-23T06:47:39.747Z,0
2017-01-23T06:48:53.862Z,0
2017-01-23T06:50:07.324Z,0
2017-01-23T06:51:20.782Z,0
2017-01-23T06:52:34.325Z,0
2017-01-23T06:53:47.806Z,0
2017-01-23T06:55:01.917Z,0
2017-01-23T06:56:15.609Z,0
2017-01-23T06:57:29.055Z,0
2017-01-23T06:58:42.566Z,0
2017-01-23T06:59:56.424Z,0
2017-01-23T07:01:10.092Z,0
2017-01-23T07:02:23.511Z,0
2017-01-23T07:03:37.440Z,0
2017-01-23T07:04:50.937Z,0
2017-01-23T07:06:04.373Z,0
2017-01-23T07:07:18.110Z,0
2017-01-23T07:08:32.932Z,0
2017-01-23T07:09:48.974Z,5
2017-01-23T07:11:02.409Z,5
2017-01-23T07:12:15.880Z,5
2017-01-23T07:13:29.642Z,5
2017-01-23T07:14:43.148Z,5
2017-01-23T07:15:56.639Z,5
2017-01-23T07:17:10.048Z,5
2017-01-23T07:18:23.505Z,5
2017-01-23T07:19:37.695Z,5
2017-01-23T07:20:51.313Z,10
2017-01-23T07:22:04.794Z,10
2017-01-23T07:23:18.217Z,10
2017-01-23T07:24:31.697Z,10
2017-01-23T07:25:45.428Z,10
2017-01-23T07:26:58.963Z,10
2017-01-23T07:28:12.485Z,15
2017-01-23T07:29:25.953Z,15
2017-01-23T07:30:39.444Z,15
2017-01-23T07:31:53.254Z,15
2017-01-23T07:33:06.665Z,15
2017-01-23T07:34:20.167Z,15
2017-01-23T07:35:33.780Z,20
2017-01-23T07:36:47.270Z,20
2017-01-23T07:38:01.548Z,20
2017-01-23T07:39:14.996Z,20
2017-01-23T07:40:28.474Z,20
2017-01-23T07:41:41.930Z,25
2017-01-23T07:42:55.417Z,25
2017-01-23T07:44:09.141Z,25
2017-01-23T07:45:22.619Z,25
2017-01-23T07:46:37.317Z,25
2017-01-23T07:47:50.796Z,25
2017-01-23T07:49:04.266Z,30
2017-01-23T07:50:18.038Z,30
2017-01-23T07:51:32.069Z,30
2017-01-23T07:52:45.646Z,30
2017-01-23T07:53:59.218Z,30
2017-01-23T07:55:12.829Z,30
2017-01-23T07:56:26.655Z,30
2017-01-23T07:57:40.143Z,35
2017-01-23T07:58:53.698Z,35
2017-01-23T08:00:07.285Z,35
2017-01-23T08:01:20.819Z,35
2017-01-23T08:02:34.663Z,40
2017-01-23T08:03:48.176Z,40
2017-01-23T08:05:01.866Z,40
2017-01-23T08:06:15.580Z,40
2017-01-23T08:07:29.164Z,40
2017-01-23T08:08:42.927Z,40
2017-01-23T08:09:56.345Z,45
2017-01-23T08:11:09.784Z,45
2017-01-23T08:12:23.297Z,40
2017-01-23T08:13:36.765Z,40
2017-01-23T08:14:50.467Z,40
2017-01-23T08:16:03.866Z,40
2017-01-23T08:17:18.910Z,45
2017-01-23T08:18:33.295Z,45
2017-01-23T08:19:46.770Z,45
2017-01-23T08:21:00.571Z,45
2017-01-23T08:22:14.472Z,45
2017-01-23T08:23:29.531Z,45
2017-01-23T08:24:43.022Z,45
2017-01-23T08:25:59.090Z,45
2017-01-23T08:27:12.891Z,45
2017-01-23T08:28:26.512Z,45
2017-01-23T08:29:40.126Z,45
2017-01-23T08:30:53.646Z,45
2017-01-23T08:32:07.227Z,50
2017-01-23T08:33:22.178Z,50
2017-01-23T08:34:35.867Z,50
2017-01-23T08:35:49.421Z,50
2017-01-23T08:37:03.028Z,55
2017-01-23T08:38:16.559Z,55
2017-01-23T08:39:30.553Z,55
2017-01-23T08:40:44.589Z,55
2017-01-23T08:41:58.176Z,60
2017-01-23T08:43:11.737Z,60
2017-01-23T08:44:26.445Z,60
2017-01-23T08:45:40.329Z,60
2017-01-23T08:46:53.977Z,60
2017-01-23T08:48:07.535Z,65
2017-01-23T08:49:20.998Z,65
2017-01-23T08:50:37.517Z,65
2017-01-23T08:51:51.365Z,65
2017-01-23T08:53:04.797Z,65
2017-01-23T08:54:18.236Z,65
2017-01-23T08:55:32.130Z,65
2017-01-23T08:56:45.625Z,70
2017-01-23T08:57:59.378Z,70
2017-01-23T08:59:13.245Z,70
2017-01-23T09:00:26.825Z,70
2017-01-23T09:01:40.264Z,75
2017-01-23T09:02:53.721Z,75
2017-01-23T09:04:07.953Z,80
2017-01-23T09:05:21.834Z,80
2017-01-23T09:06:35.740Z,80
2017-01-23T09:07:49.194Z,80
2017-01-23T09:09:02.672Z,75
2017-01-23T09:10:17.728Z,75
2017-01-23T09:11:31.223Z,75
2017-01-23T09:12:44.718Z,75
2017-01-23T09:13:58.145Z,75
2017-01-23T09:15:12.043Z,80
2017-01-23T09:16:25.865Z,80
2017-01-23T09:17:39.444Z,85
2017-01-23T09:18:52.861Z,85
2017-01-23T09:20:06.742Z,85
2017-01-23T09:21:20.225Z,85
2017-01-23T09:22:34.005Z,85
2017-01-23T09:23:47.467Z,85
2017-01-23T09:25:00.937Z,85
2017-01-23T09:26:14.417Z,90
2017-01-23T09:27:27.921Z,85
2017-01-23T09:28:42.056Z,90
2017-01-23T09:29:55.526Z,90
2017-01-23T09:31:09.022Z,90
2017-01-23T09:32:22.535Z,90
2017-01-23T09:33:36.026Z,90
2017-01-23T09:34:50.167Z,90
2017-01-23T09:36:29.253Z,90
2017-01-23T09:37:42.737Z,90
2017-01-23T09:38:56.182Z,90
2017-01-23T09:40:09.942Z,90
2017-01-23T09:41:23.413Z,95
2017-01-23T09:42:39.084Z,95
2017-01-23T09:43:52.532Z,95
2017-01-23T09:45:05.968Z,95
2017-01-23T09:46:19.671Z,95
2017-01-23T09:47:34.402Z,95
2017-01-23T09:48:47.875Z,90
2017-01-23T09:50:01.283Z,90
2017-01-23T09:51:14.813Z,95
2017-01-23T09:52:28.560Z,95
2017-01-23T09:53:42.107Z,95
2017-01-23T09:54:55.540Z,95
2017-01-23T09:56:09.014Z,95
2017-01-23T09:57:23.408Z,95
2017-01-23T09:59:03.358Z,100
2017-01-23T10:00:16.952Z,100
2017-01-23T10:01:30.467Z,95
2017-01-23T10:02:44.005Z,100
2017-01-23T10:03:57.945Z,100
2017-01-23T10:05:12.253Z,100
2017-01-23T10:06:26.212Z,100
2017-01-23T10:07:39.761Z,100
2017-01-23T10:08:53.357Z,95
2017-01-23T10:10:07.410Z,100
2017-01-23T10:11:21.272Z,95
2017-01-23T10:12:34.911Z,100
2017-01-23T10:13:48.549Z,100
2017-01-23T10:15:01.961Z,100
2017-01-23T10:16:15.617Z,100
2017-01-23T10:17:29.527Z,100
2017-01-23T10:18:43.447Z,100
2017-01-23T10:19:58.370Z,100
2017-01-23T10:21:11.909Z,100
2017-01-23T10:22:25.820Z,100
2017-01-23T10:23:39.751Z,100
2017-01-23T10:24:53.543Z,100
2017-01-23T10:26:07.666Z,100
2017-01-23T10:27:21.862Z,100
2017-01-23T10:28:35.450Z,100
2017-01-23T10:29:49.326Z,100
2017-01-23T10:31:03.035Z,100
2017-01-23T10:32:16.678Z,100
2017-01-23T10:33:30.273Z,100
2017-01-23T10:34:43.839Z,100
2017-01-23T10:35:57.830Z,100
2017-01-23T10:37:11.452Z,95
2017-01-23T10:38:25.064Z,90
2017-01-23T10:39:38.692Z,90
2017-01-23T10:40:52.504Z,95
2017-01-23T10:42:07.009Z,95
2017-01-23T10:43:21.234Z,100
2017-01-23T10:44:34.801Z,100
2017-01-23T10:45:48.464Z,100
2017-01-23T10:47:02.137Z,105
2017-01-23T10:48:15.979Z,105
2017-01-23T10:49:29.549Z,105
2017-01-23T10:50:43.027Z,105
2017-01-23T10:51:57.035Z,105
2017-01-23T10:53:10.526Z,105
2017-01-23T10:54:24.712Z,105
2017-01-23T10:55:38.174Z,105
2017-01-23T10:56:51.742Z,100
2017-01-23T10:58:05.640Z,100
2017-01-23T10:59:21.241Z,100
2017-01-23T11:00:34.989Z,100
2017-01-23T11:01:48.452Z,100
2017-01-23T11:03:01.949Z,100
2017-01-23T11:04:15.428Z,100
2017-01-23T11:05:28.918Z,100
2017-01-23T11:06:43.148Z,100
2017-01-23T11:07:56.717Z,100
2017-01-23T11:09:10.601Z,100
2017-01-23T11:10:24.090Z,100
2017-01-23T11:11:37.549Z,100
2017-01-23T11:12:51.298Z,100
2017-01-23T11:14:05.021Z,100
2017-01-23T11:15:18.488Z,100
2017-01-23T11:16:32.028Z,100
2017-01-23T11:17:46.105Z,100
2017-01-23T11:18:59.967Z,100
2017-01-23T11:20:13.930Z,100
2017-01-23T11:21:27.452Z,100
2017-01-23T11:22:41.252Z,100
2017-01-23T11:23:55.216Z,100
2017-01-23T11:25:09.069Z,100
2017-01-23T11:26:22.600Z,100
2017-01-23T11:27:36.515Z,100
2017-01-23T11:28:50.135Z,100
2017-01-23T11:30:03.626Z,100
2017-01-23T11:31:17.487Z,100
2017-01-23T11:32:31.023Z,100
2017-01-23T11:33:44.999Z,100
2017-01-23T11:34:58.555Z,100
2017-01-23T11:36:12.097Z,100
2017-01-23T11:37:26.057Z,100
2017-01-23T11:38:39.724Z,100
2017-01-23T11:39:54.111Z,100
2017-01-23T11:41:08.059Z,100
2017-01-23T11:42:22.136Z,100
2017-01-23T11:43:36.032Z,100
2017-01-23T11:46:03.177Z,100
2017-01-23T11:47:16.640Z,100
2017-01-23T11:48:30.149Z,100
2017-01-23T11:49:44.002Z,100
2017-01-23T11:50:58.137Z,100
2017-01-23T11:52:12.061Z,100
2017-01-23T11:53:25.941Z,100
2017-01-23T11:54:39.582Z,95
2017-01-23T11:55:53.716Z,95
2017-01-23T11:57:07.297Z,95
2017-01-23T11:58:21.395Z,95
2017-01-23T11:59:34.996Z,95
2017-01-23T12:00:50.214Z,95
2017-01-23T12:02:04.038Z,95
2017-01-23T12:03:18.097Z,95
2017-01-23T12:04:32.230Z,95
2017-01-23T12:05:46.223Z,95
2017-01-23T12:06:59.786Z,95
2017-01-23T12:08:14.113Z,95
2017-01-23T12:09:27.585Z,95
2017-01-23T12:10:41.069Z,95
2017-01-23T12:11:54.783Z,95
2017-01-23T12:13:08.289Z,95
2017-01-23T12:14:22.281Z,95
2017-01-23T12:15:37.995Z,95
2017-01-23T12:16:52.887Z,95
2017-01-23T12:18:06.992Z,95
2017-01-23T12:19:20.599Z,95
2017-01-23T12:20:34.793Z,95
2017-01-23T12:21:48.919Z,95
2017-01-23T12:23:02.865Z,95
2017-01-23T12:24:16.358Z,95
2017-01-23T12:25:29.839Z,95
2017-01-23T12:26:44.274Z,95
2017-01-23T12:27:59.071Z,95
2017-01-23T12:29:12.765Z,95
2017-01-23T12:30:27.119Z,95
2017-01-23T12:31:40.738Z,95
2017-01-23T12:32:54.629Z,95
2017-01-23T12:34:08.323Z,95
2017-01-23T12:35:22.493Z,95
2017-01-23T12:36:36.224Z,95
2017-01-23T12:37:50.030Z,90
2017-01-23T12:39:04.180Z,90
2017-01-23T12:40:17.812Z,90
2017-01-23T12:41:31.903Z,90
2017-01-23T12:42:46.376Z,90
2017-01-23T12:43:59.845Z,90
2017-01-23T12:45:13.812Z,90
2017-01-23T12:46:27.540Z,90
2017-01-23T12:47:41.248Z,90
2017-01-23T12:48:55.003Z,90
2017-01-23T12:50:08.589Z,90
2017-01-23T12:51:22.415Z,90
2017-01-23T12:52:36.660Z,90
2017-01-23T12:53:50.568Z,90
2017-01-23T12:55:04.330Z,90
2017-01-23T12:56:17.882Z,90
2017-01-23T12:57:31.798Z,90
2017-01-23T12:58:45.838Z,90
2017-01-23T12:59:59.406Z,90
2017-01-23T13:01:12.984Z,90
2017-01-23T13:02:26.814Z,90
2017-01-23T13:03:40.554Z,90
2017-01-23T13:04:54.408Z,90
2017-01-23T13:06:07.984Z,90
2017-01-23T13:07:21.890Z,90
2017-01-23T13:08:35.528Z,90
2017-01-23T13:09:49.594Z,90
2017-01-23T13:11:03.679Z,90
2017-01-23T13:12:17.284Z,90
2017-01-23T13:13:31.747Z,90
2017-01-23T13:14:45.516Z,90
2017-01-23T13:15:59.728Z,90
2017-01-23T13:17:13.723Z,90
2017-01-23T13:18:27.834Z,90
2017-01-23T13:19:41.427Z,90
2017-01-23T13:20:55.029Z,90
2017-01-23T13:22:09.657Z,90
2017-01-23T13:23:24.371Z,85
2017-01-23T13:24:38.272Z,85
2017-01-23T13:25:52.520Z,85
2017-01-23T13:27:06.580Z,85
2017-01-23T13:28:20.418Z,85
2017-01-23T13:29:33.960Z,85
2017-01-23T13:30:47.618Z,85
2017-01-23T13:32:03.893Z,85
2017-01-23T13:33:17.466Z,85
2017-01-23T13:34:31.414Z,85
2017-01-23T13:35:45.102Z,85
2017-01-23T13:36:58.789Z,85
2017-01-23T13:38:12.416Z,85
2017-01-23T13:39:26.663Z,85
2017-01-23T13:40:41.009Z,85
2017-01-23T13:41:55.812Z,90
2017-01-23T13:43:11.085Z,90
2017-01-23T13:44:25.888Z,90
2017-01-23T13:45:39.892Z,90
2017-01-23T13:46:53.832Z,90
2017-01-23T13:48:07.840Z,90
2017-01-23T13:49:22.269Z,90
2017-01-23T13:50:35.928Z,90
2017-01-23T13:51:50.922Z,90
2017-01-23T13:53:05.075Z,90
2017-01-23T13:54:18.641Z,85
2017-01-23T13:55:32.184Z,85
2017-01-23T13:56:45.894Z,85
2017-01-23T13:57:59.656Z,85
2017-01-23T13:59:13.541Z,85
2017-01-23T14:00:27.072Z,85
2017-01-23T14:01:40.979Z,85
2017-01-23T14:02:55.398Z,85
2017-01-23T14:04:08.880Z,85
2017-01-23T14:05:22.656Z,85
2017-01-23T14:06:36.153Z,85
2017-01-23T14:07:51.647Z,85
2017-01-23T14:09:05.174Z,75
2017-01-23T14:10:18.713Z,70
2017-01-23T14:11:32.514Z,70
2017-01-23T14:12:47.361Z,70
2017-01-23T14:14:00.810Z,70
2017-01-23T14:15:14.580Z,70
2017-01-23T14:16:28.142Z,70
2017-01-23T14:17:42.065Z,70
2017-01-23T14:18:55.633Z,70
2017-01-23T14:20:09.297Z,65
2017-01-23T14:21:22.989Z,65
2017-01-23T14:22:36.849Z,60
2017-01-23T14:23:52.098Z,60
2017-01-23T14:25:05.805Z,65
2017-01-23T14:26:19.470Z,65
2017-01-23T14:27:33.100Z,65
2017-01-23T14:28:46.745Z,60
2017-01-23T14:30:00.671Z,60
2017-01-23T14:31:14.177Z,55
2017-01-23T14:32:27.948Z,55
2017-01-23T14:33:41.819Z,55
2017-01-23T14:34:55.492Z,50
2017-01-23T14:36:09.347Z,50
2017-01-23T14:37:22.814Z,50
2017-01-23T14:38:36.333Z,45
2017-01-23T14:39:51.214Z,45
2017-01-23T14:41:05.247Z,45
2017-01-23T14:42:19.840Z,40
2017-01-23T14:43:34.171Z,40
2017-01-23T14:44:47.763Z,40
2017-01-23T14:46:01.291Z,40
2017-01-23T14:47:15.748Z,40
2017-01-23T14:48:36.081Z,40
2017-01-23T14:49:50.352Z,45
2017-01-23T14:51:03.917Z,45
2017-01-23T14:52:17.459Z,40
2017-01-23T14:53:31.132Z,40
2017-01-23T14:54:45.046Z,40
2017-01-23T14:55:58.588Z,40
2017-01-23T14:57:12.953Z,40
2017-01-23T14:58:26.536Z,40
2017-01-23T14:59:40.163Z,40
2017-01-23T15:00:54.034Z,40
2017-01-23T15:02:07.551Z,35
2017-01-23T15:03:21.112Z,35
2017-01-23T15:04:34.621Z,35
2017-01-23T15:05:48.248Z,35
2017-01-23T15:07:01.974Z,35
2017-01-23T15:08:15.567Z,35
2017-01-23T15:09:29.071Z,35
2017-01-23T15:10:42.508Z,35
2017-01-23T15:11:56.014Z,35
2017-01-23T15:13:09.822Z,35
2017-01-23T15:14:23.367Z,35
2017-01-23T15:15:36.832Z,35
2017-01-23T15:16:50.890Z,35
2017-01-23T15:18:04.430Z,30
2017-01-23T15:19:18.531Z,30
2017-01-23T15:20:31.991Z,30
2017-01-23T15:21:45.922Z,30
2017-01-23T15:22:59.441Z,25
2017-01-23T15:24:14.355Z,25
2017-01-23T15:25:28.154Z,25
2017-01-23T15:26:41.672Z,25
2017-01-23T15:27:56.166Z,25
2017-01-23T15:29:10.580Z,20
2017-01-23T15:30:24.477Z,20
2017-01-23T15:31:38.293Z,20
2017-01-23T15:32:52.209Z,20
2017-01-23T15:34:06.168Z,20
2017-01-23T15:35:19.728Z,20
2017-01-23T15:36:33.700Z,15
2017-01-23T15:37:47.507Z,15
2017-01-23T15:39:01.007Z,15
2017-01-23T15:40:15.792Z,15
2017-01-23T15:41:29.305Z,15
2017-01-23T15:42:43.249Z,15
2017-01-23T15:43:57.006Z,10
2017-01-23T15:45:37.839Z,10
2017-01-23T15:46:51.315Z,10
2017-01-23T15:48:05.260Z,10
2017-01-23T15:49:19.176Z,10
2017-01-23T15:50:33.923Z,10
2017-01-23T15:51:47.433Z,5
2017-01-23T15:53:01.339Z,5
2017-01-23T15:54:15.742Z,5
2017-01-23T15:55:29.629Z,5
2017-01-23T15:56:43.135Z,5
2017-01-23T15:57:57.788Z,5
2017-01-23T15:59:15.245Z,5
2017-01-23T16:00:30.635Z,5
2017-01-23T16:01:44.810Z,0
2017-01-23T16:02:58.687Z,0
2017-01-23T16:04:12.531Z,0
2017-01-23T16:05:28.445Z,0
2017-01-23T16:06:45.127Z,0
2017-01-23T16:07:59.187Z,0
2017-01-23T16:09:12.982Z,0
2017-01-23T16:10:26.713Z,0
2017-01-23T16:11:40.501Z,0
2017-01-23T16:12:55.202Z,0
2017-01-23T16:14:09.854Z,0
2017-01-23T16:15:23.821Z,0
2017-01-23T16:16:37.890Z,0
2017-01-23T16:17:53.250Z,0
2017-01-23T16:19:07.198Z,0
2017-01-23T16:20:21.362Z,0
2017-01-23T16:21:35.634Z,0
2017-01-23T16:22:49.950Z,0
2017-01-23T16:24:03.781Z,0
2017-01-23T16:25:17.507Z,0
2017-01-23T16:26:31.757Z,0
2017-01-23T16:27:45.961Z,0
2017-01-23T16:28:59.432Z,0
2017-01-23T16:30:13.336Z,0
2017-01-23T16:31:26.754Z,0
2017-01-23T16:32:40.557Z,0
2017-01-23T16:33:54.064Z,0
2017-01-23T16:35:07.584Z,0
2017-01-23T16:36:21.076Z,0
2017-01-23T16:37:35.069Z,0
2017-01-23T16:38:48.907Z,0
2017-01-23T16:40:02.453Z,0
2017-01-23T16:41:16.028Z,0
2017-01-23T16:42:29.545Z,0
2017-01-23T16:43:43.091Z,0
2017-01-23T16:44:56.903Z,0
2017-01-23T16:46:10.567Z,0
2017-01-23T16:47:24.039Z,0
2017-01-23T16:48:37.601Z,0
2017-01-23T16:49:51.093Z,0
2017-01-23T16:51:05.411Z,0
2017-01-23T16:52:20.005Z,0
2017-01-23T16:53:33.632Z,0
2017-01-23T16:54:47.091Z,0
2017-01-23T16:56:00.573Z,0
2017-01-23T16:57:14.018Z,0
2017-01-23T16:58:29.469Z,0
2017-01-23T16:59:42.973Z,0
2017-01-23T17:00:56.498Z,0
2017-01-23T17:02:10.053Z,0
2017-01-23T17:03:23.816Z,0
2017-01-23T17:04:39.979Z,0
2017-01-23T17:05:54.395Z,0
2017-01-23T17:07:07.999Z,0
2017-01-23T17:08:23.004Z,0
2017-01-23T17:09:36.870Z,0
2017-01-23T17:10:50.502Z,0
2017-01-23T17:12:04.026Z,0
2017-01-23T17:13:17.691Z,0
2017-01-23T17:14:31.411Z,0
2017-01-23T17:15:45.571Z,0
2017-01-23T17:16:59.150Z,0
2017-01-23T17:18:12.647Z,0
2017-01-23T17:19:26.276Z,0
2017-01-23T17:20:39.915Z,0
2017-01-23T17:21:56.122Z,0
2017-01-23T17:23:10.122Z,0
2017-01-23T17:24:23.694Z,0
2017-01-23T17:25:37.278Z,0
2017-01-23T17:26:51.396Z,0
2017-01-23T17:28:06.176Z,0
2017-01-23T17:29:22.509Z,0
2017-01-23T17:30:38.357Z,0
2017-01-23T17:31:51.874Z,0
2017-01-23T17:33:05.446Z,0
2017-01-23T17:34:19.429Z,0
2017-01-23T17:35:33.137Z,0
2017-01-23T17:36:47.607Z,0
2017-01-23T17:38:01.318Z,0
2017-01-23T17:39:15.395Z,0
2017-01-23T17:40:29.247Z,0
2017-01-23T17:41:44.164Z,0
2017-01-23T17:42:58.988Z,0
2017-01-23T17:44:12.655Z,0
2017-01-23T17:45:26.487Z,0
2017-01-23T17:46:40.998Z,0
2017-01-23T17:47:54.747Z,0
2017-01-23T17:49:08.405Z,0
2017-01-23T17:50:22.226Z,0
2017-01-23T17:51:37.432Z,0
2017-01-23T17:52:51.377Z,0
2017-01-23T17:54:05.244Z,0
2017-01-23T17:55:18.907Z,0